createdAt,value
2023-04-03T00:01:14.206Z,1.00
2023-04-03T00:03:42.635Z,0.70
2023-04-03T00:06:12.192Z,0.50
2023-04-03T00:08:41.444Z,0.70
2023-04-03T00:11:09.813Z,1.00
2023-04-03T00:13:39.711Z,0.80
2023-04-03T00:16:08.801Z,0.90
2023-04-03T00:18:36.873Z,0.60
2023-04-03T00:21:05.248Z,0.60
2023-04-03T00:23:33.444Z,0.90
2023-04-03T00:26:01.317Z,0.53
2023-04-03T00:28:29.180Z,0.60
2023-04-03T00:30:58.445Z,0.80
2023-04-03T00:33:26.338Z,0.70
2023-04-03T00:35:54.587Z,0.90
2023-04-03T00:38:22.474Z,1.10
2023-04-03T00:40:51.590Z,0.80
2023-04-03T00:43:21.836Z,1.20
2023-04-03T00:45:51.860Z,0.90
2023-04-03T00:48:25.050Z,0.63
2023-04-03T00:50:54.123Z,0.80
2023-04-03T00:53:27.178Z,0.70
2023-04-03T00:55:57.308Z,0.73
2023-04-03T00:58:30.730Z,0.73
2023-04-03T01:01:01.007Z,0.70
2023-04-03T01:03:32.627Z,0.90
2023-04-03T01:06:00.839Z,1.00
2023-04-03T01:08:28.693Z,0.60
2023-04-03T01:10:56.514Z,0.70
2023-04-03T01:13:27.865Z,0.70
2023-04-03T01:15:56.605Z,0.70
2023-04-03T01:18:26.774Z,0.80
2023-04-03T01:21:31.043Z,0.70
2023-04-03T01:24:13.751Z,0.73
2023-04-03T01:26:41.616Z,0.97
2023-04-03T01:29:09.563Z,1.17
2023-04-03T01:31:51.572Z,0.70
2023-04-03T01:34:20.524Z,1.07
2023-04-03T01:36:48.301Z,0.80
2023-04-03T01:39:16.416Z,0.67
2023-04-03T01:41:44.322Z,0.73
2023-04-03T01:44:12.144Z,0.90
2023-04-03T01:46:39.921Z,0.70
2023-04-03T01:49:09.052Z,0.70
2023-04-03T01:51:36.848Z,0.80
2023-04-03T01:54:05.029Z,1.00
2023-04-03T01:56:32.892Z,1.00
2023-04-03T01:59:00.736Z,0.77
2023-04-03T02:01:28.632Z,1.00
2023-04-03T02:03:56.532Z,0.90
2023-04-03T02:06:26.270Z,0.97
2023-04-03T02:08:54.334Z,0.60
2023-04-03T02:11:22.271Z,1.00
2023-04-03T02:13:50.083Z,0.90
2023-04-03T02:16:17.999Z,1.00
2023-04-03T02:18:46.135Z,0.67
2023-04-03T02:21:13.980Z,0.73
2023-04-03T02:23:43.162Z,0.80
2023-04-03T02:26:13.179Z,0.67
2023-04-03T02:28:42.083Z,0.70
2023-04-03T02:31:11.116Z,0.80
2023-04-03T02:33:39.645Z,0.73
2023-04-03T02:36:09.034Z,0.80
2023-04-03T02:38:37.184Z,0.97
2023-04-03T02:41:08.046Z,0.83
2023-04-03T02:43:36.470Z,1.03
2023-04-03T02:46:04.373Z,0.77
2023-04-03T02:48:32.236Z,1.10
2023-04-03T02:51:00.047Z,1.03
2023-04-03T02:53:27.830Z,1.03
2023-04-03T02:55:55.566Z,0.90
2023-04-03T02:58:24.712Z,0.90
2023-04-03T03:00:52.476Z,0.90
2023-04-03T03:03:20.609Z,0.83
2023-04-03T03:05:49.129Z,0.80
2023-04-03T03:08:16.940Z,0.70
2023-04-03T03:10:44.698Z,0.70
2023-04-03T03:13:12.496Z,0.90
2023-04-03T03:15:41.704Z,0.93
2023-04-03T03:18:09.523Z,0.60
2023-04-03T03:20:37.476Z,1.03
2023-04-03T03:23:05.723Z,0.97
2023-04-03T03:25:33.674Z,0.53
2023-04-03T03:28:01.488Z,0.83
2023-04-03T03:30:29.306Z,0.90
2023-04-03T03:32:58.558Z,0.73
2023-04-03T03:35:26.639Z,1.00
2023-04-03T03:37:54.527Z,0.80
2023-04-03T03:40:22.363Z,0.90
2023-04-03T03:42:50.213Z,0.90
2023-04-03T03:45:18.145Z,0.90
2023-04-03T03:47:46.625Z,0.97
2023-04-03T03:50:15.843Z,0.90
2023-04-03T03:52:43.984Z,0.90
2023-04-03T03:55:11.826Z,1.00
2023-04-03T03:57:39.790Z,0.97
2023-04-03T04:00:09.827Z,1.10
2023-04-03T04:02:37.808Z,0.97
2023-04-03T04:05:06.699Z,1.40
2023-04-03T04:07:35.954Z,0.93
2023-04-03T04:10:04.601Z,1.20
2023-04-03T04:12:32.338Z,0.83
2023-04-03T04:15:00.264Z,1.10
2023-04-03T04:17:28.009Z,1.20
2023-04-03T04:19:55.863Z,1.00
2023-04-03T04:22:23.770Z,1.20
2023-04-03T04:24:53.068Z,1.30
2023-04-03T04:27:20.940Z,1.00
2023-04-03T04:29:48.708Z,1.00
2023-04-03T04:32:16.803Z,1.10
2023-04-03T04:34:44.589Z,1.10
2023-04-03T04:37:12.612Z,1.00
2023-04-03T04:39:40.387Z,1.10
2023-04-03T04:42:16.031Z,1.07
2023-04-03T04:44:44.524Z,1.30
2023-04-03T04:47:12.641Z,1.27
2023-04-03T04:49:40.387Z,1.20
2023-04-03T04:52:08.429Z,1.50
2023-04-03T04:54:36.282Z,1.23
2023-04-03T04:57:04.103Z,1.17
2023-04-03T04:59:33.352Z,1.23
2023-04-03T05:02:01.721Z,1.40
2023-04-03T05:04:29.733Z,1.40
2023-04-03T05:06:57.598Z,1.20
2023-04-03T05:09:25.523Z,1.07
2023-04-03T05:11:53.370Z,1.20
2023-04-03T05:14:21.323Z,1.17
2023-04-03T05:16:53.769Z,1.30
2023-04-03T05:19:21.724Z,1.40
2023-04-03T05:21:49.944Z,1.20
2023-04-03T05:24:18.163Z,1.27
2023-04-03T05:26:46.194Z,1.13
2023-04-03T05:29:14.216Z,1.20
2023-04-03T05:31:42.112Z,1.50
2023-04-03T05:34:11.478Z,0.93
2023-04-03T05:36:39.347Z,1.07
2023-04-03T05:39:07.200Z,1.03
2023-04-03T05:41:35.548Z,1.10
2023-04-03T05:44:03.363Z,1.33
2023-04-03T05:46:31.473Z,1.20
2023-04-03T05:48:59.225Z,1.40
2023-04-03T05:51:36.032Z,1.23
2023-04-03T05:54:12.033Z,1.10
2023-04-03T05:56:40.000Z,1.10
2023-04-03T05:59:08.394Z,1.10
2023-04-03T06:01:36.414Z,1.30
2023-04-03T06:04:04.366Z,1.30
2023-04-03T06:06:47.231Z,1.50
2023-04-03T06:09:15.434Z,1.23
2023-04-03T06:11:43.773Z,1.30
2023-04-03T06:14:12.810Z,1.10
2023-04-03T06:16:41.252Z,1.20
2023-04-03T06:19:09.618Z,1.40
2023-04-03T06:21:51.442Z,1.27
2023-04-03T06:24:22.718Z,1.50
2023-04-03T06:26:52.230Z,1.30
2023-04-03T06:29:20.994Z,1.20
2023-04-03T06:31:49.746Z,2.10
2023-04-03T06:34:18.995Z,1.20
2023-04-03T06:36:47.345Z,1.40
2023-04-03T06:39:17.482Z,1.03
2023-04-03T06:41:46.874Z,1.10
2023-04-03T06:44:16.711Z,1.50
2023-04-03T06:46:46.356Z,1.03
2023-04-03T06:49:15.044Z,1.43
2023-04-03T06:51:42.947Z,1.50
2023-04-03T06:54:10.761Z,1.50
2023-04-03T06:56:38.718Z,1.80
2023-04-03T06:59:08.110Z,1.40
2023-04-03T07:01:36.278Z,1.07
2023-04-03T07:04:04.242Z,1.40
2023-04-03T07:06:33.331Z,1.07
2023-04-03T07:09:02.071Z,1.10
2023-04-03T07:11:30.198Z,1.17
2023-04-03T07:13:58.025Z,1.17
2023-04-03T07:16:27.272Z,0.90
2023-04-03T07:18:55.125Z,1.10
2023-04-03T07:21:23.069Z,1.23
2023-04-03T07:23:51.153Z,1.37
2023-04-03T07:26:19.064Z,1.30
2023-04-03T07:28:49.609Z,1.57
2023-04-03T07:31:18.483Z,1.10
2023-04-03T07:33:48.171Z,1.30
2023-04-03T07:36:19.043Z,1.50
2023-04-03T07:38:47.043Z,1.30
2023-04-03T07:41:18.614Z,1.40
2023-04-03T07:43:47.562Z,1.00
2023-04-03T07:46:15.466Z,1.13
2023-04-03T07:48:43.496Z,1.23
2023-04-03T07:51:12.784Z,1.30
2023-04-03T07:53:40.650Z,1.40
2023-04-03T07:56:08.857Z,1.10
2023-04-03T07:58:36.997Z,1.00
2023-04-03T08:01:05.224Z,1.10
2023-04-03T08:03:33.297Z,0.90
2023-04-03T08:06:06.145Z,1.50
2023-04-03T08:08:37.358Z,1.20
2023-04-03T08:11:07.029Z,1.00
2023-04-03T08:13:36.600Z,1.23
2023-04-03T08:16:12.699Z,0.93
2023-04-03T08:18:41.246Z,1.27
2023-04-03T08:21:09.672Z,1.30
2023-04-03T08:23:39.180Z,0.80
2023-04-03T08:26:11.680Z,1.00
2023-04-03T08:28:39.946Z,0.80
2023-04-03T08:31:09.412Z,1.07
2023-04-03T08:33:38.157Z,1.00
2023-04-03T08:36:07.498Z,0.87
2023-04-03T08:38:38.250Z,1.03
2023-04-03T08:41:16.452Z,0.73
2023-04-03T08:43:57.908Z,1.00
2023-04-03T08:46:34.683Z,1.27
2023-04-03T08:49:02.787Z,1.47
2023-04-03T08:51:32.273Z,1.20
2023-04-03T08:54:05.844Z,1.47
2023-04-03T08:56:36.825Z,0.80
2023-04-03T08:59:09.372Z,0.90
2023-04-03T09:01:39.284Z,0.97
2023-04-03T09:04:14.983Z,0.93
2023-04-03T09:06:49.813Z,0.87
2023-04-03T09:09:27.090Z,0.90
2023-04-03T09:12:10.262Z,0.83
2023-04-03T09:14:42.063Z,0.80
2023-04-03T09:17:18.387Z,0.90
2023-04-03T09:19:54.794Z,1.20
2023-04-03T09:22:24.918Z,0.80
2023-04-03T09:24:59.916Z,0.80
2023-04-03T09:27:29.320Z,0.90
2023-04-03T09:29:59.587Z,0.87
2023-04-03T09:32:31.036Z,0.90
2023-04-03T09:35:17.073Z,1.00
2023-04-03T09:37:52.115Z,1.10
2023-04-03T09:40:37.024Z,0.77
2023-04-03T09:43:25.598Z,1.00
2023-04-03T09:45:54.221Z,0.60
2023-04-03T09:48:24.361Z,0.60
2023-04-03T09:51:04.065Z,0.70
2023-04-03T09:53:35.246Z,0.67
2023-04-03T09:56:05.674Z,0.67
2023-04-03T09:58:49.684Z,0.60
2023-04-03T10:01:27.966Z,0.60
2023-04-03T10:04:08.850Z,0.50
2023-04-03T10:06:44.593Z,0.70
2023-04-03T10:09:22.194Z,0.80
2023-04-03T10:12:05.791Z,0.70
2023-04-03T10:14:36.346Z,0.50
2023-04-03T10:17:20.476Z,0.70
2023-04-03T10:19:53.314Z,0.73
2023-04-03T10:22:27.419Z,0.80
2023-04-03T10:25:04.461Z,0.63
2023-04-03T10:27:50.959Z,0.80
2023-04-03T10:30:31.845Z,0.90
2023-04-03T10:33:20.180Z,0.50
2023-04-03T10:35:59.890Z,0.40
2023-04-03T10:38:39.887Z,0.60
2023-04-03T10:41:17.687Z,0.40
2023-04-03T10:43:53.265Z,0.50
2023-04-03T10:46:29.802Z,0.83
2023-04-03T10:49:12.990Z,0.40
2023-04-03T10:51:44.374Z,0.43
2023-04-03T10:54:16.975Z,0.53
2023-04-03T10:56:55.374Z,0.60
2023-04-03T10:59:34.548Z,0.50
2023-04-03T11:02:08.606Z,0.37
2023-04-03T11:04:40.344Z,0.60
2023-04-03T11:07:15.998Z,0.33
2023-04-03T11:09:48.498Z,0.70
2023-04-03T11:12:23.117Z,0.80
2023-04-03T11:14:53.906Z,0.50
2023-04-03T11:17:31.458Z,0.50
2023-04-03T11:20:03.453Z,0.70
2023-04-03T11:22:34.163Z,0.50
2023-04-03T11:25:08.704Z,0.60
2023-04-03T11:27:44.672Z,0.37
2023-04-03T11:30:20.669Z,0.77
2023-04-03T11:33:07.410Z,0.60
2023-04-03T11:35:37.161Z,0.50
2023-04-03T11:38:08.206Z,0.70
2023-04-03T11:40:38.976Z,0.63
2023-04-03T11:43:10.139Z,0.33
2023-04-03T11:45:40.550Z,0.43
2023-04-03T11:48:45.322Z,0.70
2023-04-03T11:51:40.698Z,0.40
2023-04-03T11:54:49.988Z,0.47
2023-04-03T11:57:46.430Z,0.50
2023-04-03T12:01:03.631Z,0.40
2023-04-03T12:04:00.509Z,0.40
2023-04-03T12:07:13.578Z,0.40
2023-04-03T12:10:28.720Z,0.60
2023-04-03T12:13:00.703Z,0.50
2023-04-03T12:15:55.775Z,0.43
2023-04-03T12:19:05.728Z,0.43
2023-04-03T12:22:11.386Z,0.50
2023-04-03T12:24:41.340Z,0.50
2023-04-03T12:27:22.374Z,0.43
2023-04-03T12:29:57.002Z,0.50
2023-04-03T12:32:44.056Z,0.30
2023-04-03T12:35:22.438Z,0.27
2023-04-03T12:38:13.238Z,0.60
2023-04-03T12:40:50.072Z,0.30
2023-04-03T12:43:29.549Z,0.40
2023-04-03T12:46:04.615Z,0.57
2023-04-03T12:48:36.054Z,0.30
2023-04-03T12:51:05.819Z,0.43
2023-04-03T12:53:36.597Z,0.40
2023-04-03T12:56:23.406Z,0.50
2023-04-03T12:58:53.346Z,0.40
2023-04-03T13:01:23.908Z,0.40
2023-04-03T13:03:54.908Z,0.53
2023-04-03T13:06:27.473Z,0.60
2023-04-03T13:08:58.929Z,0.63
2023-04-03T13:11:29.195Z,0.60
2023-04-03T13:14:01.392Z,0.50
2023-04-03T13:16:29.199Z,0.50
2023-04-03T13:18:57.575Z,0.70
2023-04-03T13:21:30.530Z,0.50
2023-04-03T13:24:13.834Z,0.60
2023-04-03T13:26:44.112Z,0.50
2023-04-03T13:29:30.937Z,0.67
2023-04-03T13:32:01.248Z,0.50
2023-04-03T13:34:32.642Z,0.73
2023-04-03T13:37:04.354Z,0.50
2023-04-03T13:39:33.944Z,0.70
2023-04-03T13:42:03.768Z,0.60
2023-04-03T13:44:36.279Z,0.50
2023-04-03T13:47:18.452Z,0.60
2023-04-03T13:49:48.225Z,0.57
2023-04-03T13:52:30.283Z,0.67
2023-04-03T13:55:07.866Z,0.50
2023-04-03T13:57:37.999Z,0.60
2023-04-03T14:00:29.315Z,0.50
2023-04-03T14:02:59.160Z,0.60
2023-04-03T14:05:27.727Z,0.70
2023-04-03T14:07:57.923Z,0.70
2023-04-03T14:10:25.717Z,0.70
2023-04-03T14:12:53.514Z,1.03
2023-04-03T14:15:25.217Z,0.70
2023-04-03T14:17:54.803Z,0.83
2023-04-03T14:20:26.070Z,0.73
2023-04-03T14:22:54.744Z,0.73
2023-04-03T14:25:25.184Z,0.60
2023-04-03T14:27:55.063Z,0.80
2023-04-03T14:30:25.643Z,0.70
2023-04-03T14:32:53.837Z,0.80
2023-04-03T14:35:21.998Z,0.50
2023-04-03T14:37:51.291Z,0.70
2023-04-03T14:40:21.659Z,0.70
2023-04-03T14:42:51.574Z,0.60
2023-04-03T14:45:19.998Z,0.83
2023-04-03T14:47:50.439Z,0.60
2023-04-03T14:50:22.052Z,0.60
2023-04-03T14:52:51.242Z,0.73
2023-04-03T14:55:21.435Z,0.90
2023-04-03T14:57:50.913Z,0.67
2023-04-03T15:00:21.323Z,0.80
2023-04-03T15:02:49.870Z,0.77
2023-04-03T15:05:18.434Z,0.63
2023-04-03T15:07:50.418Z,0.90
2023-04-03T15:10:20.794Z,0.90
2023-04-03T15:12:51.034Z,0.70
2023-04-03T15:15:22.077Z,0.60
2023-04-03T15:17:55.725Z,0.70
2023-04-03T15:20:27.355Z,0.80
2023-04-03T15:22:57.211Z,0.77
2023-04-03T15:25:25.420Z,0.60
2023-04-03T15:27:54.955Z,0.60
2023-04-03T15:30:22.894Z,0.70
2023-04-03T15:32:51.059Z,0.60
2023-04-03T15:35:19.450Z,0.63
2023-04-03T15:37:47.391Z,0.80
2023-04-03T15:40:15.489Z,0.70
2023-04-03T15:42:50.922Z,0.63
2023-04-03T15:45:23.758Z,0.77
2023-04-03T15:47:52.098Z,0.90
2023-04-03T15:50:23.260Z,0.70
2023-04-03T15:52:55.107Z,0.70
2023-04-03T15:55:23.619Z,0.80
2023-04-03T15:57:54.218Z,0.70
2023-04-03T16:00:24.413Z,0.83
2023-04-03T16:02:54.748Z,0.90
2023-04-03T16:05:22.844Z,0.87
2023-04-03T16:07:50.831Z,0.90
2023-04-03T16:10:20.845Z,0.80
2023-04-03T16:12:48.948Z,0.80
2023-04-03T16:15:17.049Z,1.00
2023-04-03T16:17:46.752Z,0.70
2023-04-03T16:20:15.718Z,0.87
2023-04-03T16:22:43.942Z,0.90
2023-04-03T16:25:12.429Z,0.80
2023-04-03T16:27:41.054Z,0.83
2023-04-03T16:30:10.166Z,1.10
2023-04-03T16:32:40.835Z,0.73
2023-04-03T16:35:12.634Z,0.90
2023-04-03T16:37:41.514Z,0.80
2023-04-03T16:40:10.443Z,0.90
2023-04-03T16:42:38.396Z,1.27
2023-04-03T16:45:07.081Z,0.60
2023-04-03T16:47:35.226Z,0.90
2023-04-03T16:50:03.341Z,0.77
2023-04-03T16:52:32.595Z,1.10
2023-04-03T16:55:00.595Z,0.70
2023-04-03T16:57:28.685Z,0.80
2023-04-03T16:59:57.436Z,0.80
2023-04-03T17:02:26.740Z,0.83
2023-04-03T17:04:54.630Z,0.70
2023-04-03T17:07:23.232Z,0.97
2023-04-03T17:09:54.367Z,1.20
2023-04-03T17:12:23.256Z,1.00
2023-04-03T17:14:51.412Z,0.87
2023-04-03T17:17:23.775Z,0.60
2023-04-03T17:19:51.870Z,0.80
2023-04-03T17:22:19.619Z,0.90
2023-04-03T17:24:47.495Z,0.87
2023-04-03T17:27:16.651Z,0.83
2023-04-03T17:29:44.609Z,1.00
2023-04-03T17:32:12.490Z,0.80
2023-04-03T17:34:40.501Z,1.20
2023-04-03T17:37:08.546Z,0.90
2023-04-03T17:39:36.596Z,1.07
2023-04-03T17:42:04.648Z,0.90
2023-04-03T17:44:34.617Z,0.90
2023-04-03T17:47:03.155Z,0.80
2023-04-03T17:49:31.509Z,0.80
2023-04-03T17:51:59.394Z,1.27
2023-04-03T17:54:27.225Z,0.93
2023-04-03T17:56:55.044Z,1.10
2023-04-03T17:59:23.008Z,0.90
2023-04-03T18:01:52.543Z,0.87
2023-04-03T18:04:20.504Z,1.10
2023-04-03T18:06:50.704Z,0.93
2023-04-03T18:09:20.957Z,0.93
2023-04-03T18:11:49.783Z,0.93
2023-04-03T18:14:21.068Z,1.37
2023-04-03T18:16:48.885Z,1.03
2023-04-03T18:19:23.362Z,0.87
2023-04-03T18:22:03.109Z,0.80
2023-04-03T18:24:43.949Z,0.80
2023-04-03T18:27:14.508Z,1.40
2023-04-03T18:29:45.984Z,1.23
2023-04-03T18:32:17.182Z,1.20
2023-04-03T18:34:46.322Z,0.83
2023-04-03T18:37:15.121Z,1.00
2023-04-03T18:39:42.989Z,1.10
2023-04-03T18:42:15.577Z,1.10
2023-04-03T18:44:45.642Z,0.90
2023-04-03T18:47:13.914Z,0.90
2023-04-03T18:49:42.852Z,0.93
2023-04-03T18:52:13.614Z,1.10
2023-04-03T18:54:42.832Z,1.17
2023-04-03T18:57:10.911Z,1.10
2023-04-03T18:59:38.761Z,1.00
2023-04-03T19:02:07.346Z,0.93
2023-04-03T19:04:36.138Z,0.80
2023-04-03T19:07:06.338Z,1.10
2023-04-03T19:09:35.986Z,0.93
2023-04-03T19:12:03.839Z,0.80
2023-04-03T19:14:31.668Z,1.10
2023-04-03T19:16:59.760Z,0.80
2023-04-03T19:19:27.756Z,0.97
2023-04-03T19:21:55.677Z,0.90
2023-04-03T19:24:23.429Z,0.90
2023-04-03T19:26:52.667Z,1.13
2023-04-03T19:29:20.581Z,0.90
2023-04-03T19:31:48.387Z,1.30
2023-04-03T19:34:16.206Z,1.17
2023-04-03T19:36:45.344Z,1.20
2023-04-03T19:39:15.426Z,1.10
2023-04-03T19:41:45.619Z,0.83
2023-04-03T19:44:15.064Z,1.07
2023-04-03T19:46:51.342Z,1.07
2023-04-03T19:49:19.673Z,1.17
2023-04-03T19:51:47.457Z,1.20
2023-04-03T19:54:15.399Z,1.30
2023-04-03T19:56:43.279Z,0.90
2023-04-03T19:59:11.199Z,1.03
2023-04-03T20:01:40.416Z,1.13
2023-04-03T20:04:08.283Z,1.10
2023-04-03T20:06:36.862Z,1.10
2023-04-03T20:09:04.823Z,1.17
2023-04-03T20:11:32.598Z,1.10
2023-04-03T20:14:00.528Z,1.17
2023-04-03T20:16:29.660Z,1.00
2023-04-03T20:18:59.427Z,0.70
2023-04-03T20:21:32.309Z,1.00
2023-04-03T20:24:00.755Z,0.80
2023-04-03T20:26:31.794Z,0.90
2023-04-03T20:29:02.723Z,0.90
2023-04-03T20:31:31.025Z,0.90
2023-04-03T20:34:00.376Z,1.07
2023-04-03T20:36:29.460Z,0.90
2023-04-03T20:38:57.672Z,1.00
2023-04-03T20:41:25.896Z,1.13
2023-04-03T20:43:53.880Z,0.80
2023-04-03T20:46:25.500Z,0.90
2023-04-03T20:48:53.638Z,1.00
2023-04-03T20:51:23.257Z,1.07
2023-04-03T20:53:51.850Z,0.90
2023-04-03T20:56:19.742Z,1.20
2023-04-03T20:58:47.649Z,0.93
2023-04-03T21:01:17.720Z,0.97
2023-04-03T21:03:46.245Z,1.07
2023-04-03T21:06:52.073Z,1.20
2023-04-03T21:09:57.016Z,1.13
2023-04-03T21:13:01.998Z,1.00
2023-04-03T21:15:47.626Z,1.07
2023-04-03T21:18:43.601Z,0.93
2023-04-03T21:21:20.285Z,0.97
2023-04-03T21:23:48.944Z,1.20
2023-04-03T21:26:17.807Z,0.97
2023-04-03T21:28:46.383Z,1.20
2023-04-03T21:31:15.183Z,0.90
2023-04-03T21:33:45.162Z,1.10
2023-04-03T21:36:13.316Z,0.90
2023-04-03T21:38:41.074Z,1.03
2023-04-03T21:41:12.037Z,1.00
2023-04-03T21:43:39.854Z,0.73
2023-04-03T21:46:07.720Z,0.87
2023-04-03T21:48:37.517Z,1.10
2023-04-03T21:51:07.106Z,0.80
2023-04-03T21:53:36.155Z,1.07
2023-04-03T21:56:03.974Z,1.10
2023-04-03T21:58:32.338Z,1.07
2023-04-03T22:01:09.459Z,0.90
2023-04-03T22:03:37.515Z,1.10
2023-04-03T22:06:07.085Z,0.97
2023-04-03T22:08:35.052Z,1.10
2023-04-03T22:11:03.786Z,1.23
2023-04-03T22:13:31.843Z,1.70
2023-04-03T22:16:00.316Z,1.20
2023-04-03T22:18:28.195Z,1.30
2023-04-03T22:20:56.333Z,1.10
2023-04-03T22:23:27.285Z,1.10
2023-04-03T22:25:59.552Z,1.00
2023-04-03T22:28:27.731Z,1.10
2023-04-03T22:30:55.557Z,1.20
2023-04-03T22:33:23.547Z,1.23
2023-04-03T22:35:52.005Z,1.27
2023-04-03T22:38:19.807Z,1.20
2023-04-03T22:40:49.216Z,0.90
2023-04-03T22:43:17.059Z,1.00
2023-04-03T22:45:48.924Z,1.03
2023-04-03T22:48:16.918Z,1.00
2023-04-03T22:50:44.927Z,0.93
2023-04-03T22:53:12.750Z,1.00
2023-04-03T22:55:40.768Z,1.13
2023-04-03T22:58:10.038Z,1.30
2023-04-03T23:00:37.820Z,0.87
2023-04-03T23:03:05.788Z,0.80
2023-04-03T23:05:33.586Z,0.80
2023-04-03T23:08:01.507Z,1.07
2023-04-03T23:10:29.240Z,0.93
2023-04-03T23:12:56.974Z,1.00
2023-04-03T23:15:26.175Z,0.90
2023-04-03T23:17:54.054Z,1.03
2023-04-03T23:20:21.913Z,0.83
2023-04-03T23:22:49.694Z,1.07
2023-04-03T23:25:20.752Z,1.43
2023-04-03T23:27:52.512Z,1.27
2023-04-03T23:30:20.729Z,1.10
2023-04-03T23:32:49.992Z,1.10
2023-04-03T23:35:17.962Z,1.00
2023-04-03T23:37:45.799Z,1.00
2023-04-03T23:40:14.127Z,0.90
2023-04-03T23:42:43.026Z,1.20
2023-04-03T23:45:11.682Z,1.03
2023-04-03T23:47:39.556Z,1.10
2023-04-03T23:50:10.253Z,1.00
2023-04-03T23:52:38.058Z,1.23
2023-04-03T23:55:06.312Z,1.00
2023-04-03T23:57:35.195Z,1.20
